Terminal Aerodrome Forecast
Issued by NWS

Home | Current Version | Previous Version | Graphics & Text | Print | Product List | Glossary On
Versions: 1 2 3 4 5 6 7 8 9 10 11 12 13 14 15 16 17 18 19 20
000
FTUS41 KCLE 010500
TAFFDY
TAF
KFDY 010539Z 0106/0206 18003KT P6SM BKN120
     FM011100 VRB03KT 5SM BR SKC
     FM011300 23006KT P6SM SCT050 SCT250
     FM020000 VRB03KT P6SM BKN050 BKN250=

USA.gov is the U.S. government's official web portal to all federal, state and local government web resources and services.